createdAt,value
2023-03-26T00:01:46.437Z,4.55
2023-03-26T00:04:14.285Z,4.10
2023-03-26T00:06:42.005Z,4.07
2023-03-26T00:09:13.248Z,4.30
2023-03-26T00:11:41.304Z,4.80
2023-03-26T00:14:13.832Z,5.00
2023-03-26T00:16:43.322Z,4.97
2023-03-26T00:19:11.855Z,5.00
2023-03-26T00:21:39.894Z,4.50
2023-03-26T00:24:10.150Z,5.25
2023-03-26T00:26:38.907Z,4.40
2023-03-26T00:31:35.685Z,4.70
2023-03-26T00:36:35.746Z,5.57
2023-03-26T00:39:05.527Z,6.40
2023-03-26T00:41:36.867Z,7.50
2023-03-26T00:44:04.833Z,6.37
2023-03-26T00:46:32.837Z,6.17
2023-03-26T00:49:03.804Z,5.07
2023-03-26T00:51:35.052Z,6.33
2023-03-26T00:54:02.769Z,5.30
2023-03-26T00:56:30.792Z,5.63
2023-03-26T00:59:00.178Z,5.78
2023-03-26T01:01:30.318Z,5.53
2023-03-26T01:04:08.846Z,5.80
2023-03-26T01:06:42.085Z,7.00
2023-03-26T01:09:16.046Z,6.80
2023-03-26T01:11:44.863Z,7.70
2023-03-26T01:16:46.034Z,6.33
2023-03-26T01:19:20.678Z,6.37
2023-03-26T01:21:50.181Z,5.50
2023-03-26T01:24:19.317Z,5.90
2023-03-26T01:27:06.016Z,5.73
2023-03-26T01:29:42.733Z,6.33
2023-03-26T01:32:23.048Z,5.90
2023-03-26T01:35:12.431Z,6.20
2023-03-26T01:37:52.581Z,5.57
2023-03-26T01:40:27.572Z,6.10
2023-03-26T01:43:01.256Z,7.10
2023-03-26T01:45:33.096Z,7.53
2023-03-26T01:48:01.364Z,7.30
2023-03-26T01:50:29.231Z,7.80
2023-03-26T01:52:57.070Z,6.43
2023-03-26T01:55:31.749Z,5.87
2023-03-26T01:58:08.444Z,8.23
2023-03-26T02:00:43.431Z,6.60
2023-03-26T02:03:23.972Z,6.73
2023-03-26T02:05:57.916Z,5.93
2023-03-26T02:08:35.207Z,7.70
2023-03-26T02:11:11.521Z,7.20
2023-03-26T02:13:39.951Z,7.80
2023-03-26T02:16:11.658Z,7.28
2023-03-26T02:18:39.660Z,7.20
2023-03-26T02:21:11.020Z,7.05
2023-03-26T02:23:40.332Z,8.17
2023-03-26T02:26:11.397Z,7.90
2023-03-26T02:28:39.770Z,7.53
2023-03-26T02:31:09.710Z,8.32
2023-03-26T02:33:37.868Z,6.90
2023-03-26T02:36:08.383Z,5.65
2023-03-26T02:38:36.527Z,5.93
2023-03-26T02:41:05.450Z,7.63
2023-03-26T02:46:02.366Z,4.93
2023-03-26T02:48:31.323Z,7.30
2023-03-26T02:50:59.025Z,7.23
2023-03-26T02:53:29.729Z,7.47
2023-03-26T02:55:58.043Z,7.87
2023-03-26T02:58:26.399Z,7.47
2023-03-26T03:00:56.166Z,7.43
2023-03-26T03:03:24.502Z,7.87
2023-03-26T03:05:52.560Z,7.47
2023-03-26T03:08:21.457Z,7.53
2023-03-26T03:10:58.014Z,8.48
2023-03-26T03:13:25.763Z,7.83
2023-03-26T03:15:56.089Z,8.43
2023-03-26T03:18:24.106Z,8.47
2023-03-26T03:20:52.123Z,7.10
2023-03-26T03:23:19.932Z,6.80
2023-03-26T03:25:48.747Z,7.77
2023-03-26T03:30:47.088Z,7.30
2023-03-26T03:33:16.242Z,7.70
2023-03-26T03:35:45.972Z,6.80
2023-03-26T03:38:13.787Z,7.53
2023-03-26T03:40:41.524Z,7.00
2023-03-26T03:43:09.266Z,6.67
2023-03-26T03:45:37.049Z,7.60
2023-03-26T03:48:05.089Z,7.57
2023-03-26T03:50:35.840Z,6.88
2023-03-26T03:53:05.631Z,7.80
2023-03-26T03:55:33.456Z,7.03
2023-03-26T03:58:01.514Z,7.93
2023-03-26T04:00:30.706Z,9.13
2023-03-26T04:02:58.790Z,10.03
2023-03-26T04:05:26.616Z,10.00
2023-03-26T04:07:55.778Z,9.67
2023-03-26T04:10:23.523Z,10.67
2023-03-26T04:12:51.256Z,11.73
2023-03-26T04:15:19.054Z,12.10
2023-03-26T04:17:46.784Z,11.60
2023-03-26T04:20:15.961Z,12.07
2023-03-26T04:22:44.061Z,13.10
2023-03-26T04:25:15.538Z,10.15
2023-03-26T04:27:44.136Z,11.30
2023-03-26T04:30:16.606Z,11.07
2023-03-26T04:32:44.700Z,11.50
2023-03-26T04:35:15.143Z,11.05
2023-03-26T04:37:44.440Z,11.30
2023-03-26T04:40:18.374Z,11.67
2023-03-26T04:42:46.535Z,10.83
2023-03-26T04:45:15.768Z,11.63
2023-03-26T04:47:43.560Z,11.23
2023-03-26T04:50:12.665Z,11.27
2023-03-26T04:52:41.624Z,10.97
2023-03-26T04:55:24.870Z,11.53
2023-03-26T04:57:56.811Z,10.70
2023-03-26T05:00:24.730Z,11.27
2023-03-26T05:02:55.877Z,8.20
2023-03-26T05:05:23.927Z,9.97
2023-03-26T05:07:51.632Z,10.10
2023-03-26T05:10:21.417Z,9.87
2023-03-26T05:12:49.732Z,10.03
2023-03-26T05:15:17.529Z,10.13
2023-03-26T05:17:46.365Z,10.47
2023-03-26T05:20:20.888Z,9.60
2023-03-26T05:22:49.420Z,10.10
2023-03-26T05:25:18.100Z,9.68
2023-03-26T05:27:47.475Z,8.25
2023-03-26T05:30:16.787Z,8.90
2023-03-26T05:32:45.182Z,9.23
2023-03-26T05:35:15.352Z,9.00
2023-03-26T05:37:44.490Z,9.33
2023-03-26T05:40:14.700Z,9.97
2023-03-26T05:42:42.880Z,9.50
2023-03-26T05:45:13.917Z,8.43
2023-03-26T05:47:41.858Z,9.30
2023-03-26T05:50:11.205Z,10.35
2023-03-26T05:52:39.276Z,10.53
2023-03-26T05:55:08.145Z,10.18
2023-03-26T05:57:36.751Z,9.43
2023-03-26T06:00:07.677Z,10.95
2023-03-26T06:02:36.987Z,9.93
2023-03-26T06:05:05.486Z,11.93
2023-03-26T06:07:34.019Z,9.65
2023-03-26T06:10:02.730Z,9.27
2023-03-26T06:12:30.427Z,10.73
2023-03-26T06:14:58.054Z,10.47
2023-03-26T06:17:25.715Z,10.60
2023-03-26T06:19:54.799Z,9.50
2023-03-26T06:22:22.603Z,10.10
2023-03-26T06:24:50.247Z,11.43
2023-03-26T06:27:17.889Z,12.67
2023-03-26T06:29:45.631Z,11.97
2023-03-26T06:32:19.769Z,11.60
2023-03-26T06:34:48.461Z,11.30
2023-03-26T06:37:17.994Z,11.55
2023-03-26T06:39:46.009Z,11.60
2023-03-26T06:42:13.936Z,12.88
2023-03-26T06:44:41.681Z,11.55
2023-03-26T06:47:09.417Z,11.77
2023-03-26T06:49:38.285Z,13.27
2023-03-26T06:52:06.215Z,13.80
2023-03-26T06:54:35.352Z,13.38
2023-03-26T06:57:03.202Z,14.70
2023-03-26T06:59:31.236Z,15.27
2023-03-26T07:01:58.971Z,15.15
2023-03-26T07:04:26.749Z,14.77
2023-03-26T07:06:54.903Z,15.97
2023-03-26T07:09:22.951Z,15.98
2023-03-26T07:11:52.065Z,14.68
2023-03-26T07:14:19.710Z,17.37
2023-03-26T07:16:47.432Z,17.63
2023-03-26T07:19:15.179Z,17.17
2023-03-26T07:21:43.492Z,16.30
2023-03-26T07:24:13.781Z,18.83
2023-03-26T07:26:51.744Z,19.47
2023-03-26T07:29:31.944Z,19.88
2023-03-26T07:32:09.455Z,19.37
2023-03-26T07:34:50.240Z,20.97
2023-03-26T07:37:29.394Z,19.50
2023-03-26T07:40:03.429Z,18.50
2023-03-26T07:42:49.711Z,19.33
2023-03-26T07:45:27.225Z,18.50
2023-03-26T07:47:57.008Z,18.23
2023-03-26T07:50:26.381Z,18.20
2023-03-26T07:52:54.768Z,16.60
2023-03-26T07:55:23.030Z,16.15
2023-03-26T07:58:00.372Z,14.68
2023-03-26T08:00:35.349Z,15.50
2023-03-26T08:03:38.417Z,14.40
2023-03-26T08:06:16.503Z,15.13
2023-03-26T08:08:54.446Z,14.32
2023-03-26T08:11:35.703Z,14.98
2023-03-26T08:14:16.251Z,13.90
2023-03-26T08:16:52.035Z,13.47
2023-03-26T08:19:40.751Z,14.07
2023-03-26T08:22:15.503Z,14.30
2023-03-26T08:24:53.834Z,13.17
2023-03-26T08:27:29.578Z,11.30
2023-03-26T08:30:04.240Z,11.73
2023-03-26T08:32:34.299Z,10.63
2023-03-26T08:35:05.048Z,10.43
2023-03-26T08:37:32.712Z,9.33
2023-03-26T08:40:00.708Z,8.23
2023-03-26T08:43:19.184Z,8.68
2023-03-26T08:46:12.162Z,7.43
2023-03-26T08:49:17.021Z,8.13
2023-03-26T08:51:59.769Z,8.40
2023-03-26T08:54:49.485Z,8.90
2023-03-26T08:57:41.069Z,7.73
2023-03-26T09:00:36.552Z,8.20
2023-03-26T09:03:32.583Z,7.73
2023-03-26T09:06:35.053Z,6.63
2023-03-26T09:09:41.617Z,6.50
2023-03-26T09:12:36.423Z,6.23
2023-03-26T09:15:36.655Z,6.83
2023-03-26T09:18:36.953Z,6.27
2023-03-26T09:21:30.545Z,7.03
2023-03-26T09:24:37.685Z,6.50
2023-03-26T09:27:16.332Z,6.83
2023-03-26T09:30:31.580Z,6.53
2023-03-26T09:33:32.837Z,7.33
2023-03-26T09:36:31.925Z,7.33
2023-03-26T09:39:08.953Z,7.27
2023-03-26T09:41:43.657Z,7.70
2023-03-26T09:44:39.247Z,6.53
2023-03-26T09:47:37.466Z,6.90
2023-03-26T09:50:24.730Z,6.32
2023-03-26T09:53:05.314Z,5.93
2023-03-26T09:56:00.446Z,5.17
2023-03-26T09:58:42.940Z,5.07
2023-03-26T10:01:18.357Z,5.23
2023-03-26T10:04:14.906Z,5.17
2023-03-26T10:06:54.177Z,4.47
2023-03-26T10:09:39.391Z,4.90
2023-03-26T10:12:13.924Z,4.77
2023-03-26T10:14:47.580Z,3.97
2023-03-26T10:17:33.649Z,4.40
2023-03-26T10:20:20.954Z,3.83
2023-03-26T10:22:57.616Z,4.50
2023-03-26T10:25:56.305Z,4.90
2023-03-26T10:28:40.777Z,4.00
2023-03-26T10:31:27.218Z,3.73
2023-03-26T10:34:06.332Z,3.93
2023-03-26T10:36:36.670Z,4.83
2023-03-26T10:39:38.026Z,4.17
2023-03-26T10:42:23.046Z,3.70
2023-03-26T10:45:15.467Z,4.07
2023-03-26T10:47:58.306Z,3.30
2023-03-26T10:50:41.932Z,3.43
2023-03-26T10:53:19.259Z,3.43
2023-03-26T10:55:53.009Z,3.10
2023-03-26T10:58:26.452Z,3.30
2023-03-26T11:01:00.737Z,3.37
2023-03-26T11:03:46.948Z,3.40
2023-03-26T11:06:26.504Z,3.87
2023-03-26T11:09:04.165Z,3.57
2023-03-26T11:11:38.494Z,3.60
2023-03-26T11:14:24.317Z,4.13
2023-03-26T11:17:03.963Z,4.10
2023-03-26T11:19:40.345Z,3.43
2023-03-26T11:22:18.740Z,4.03
2023-03-26T11:25:21.088Z,3.78
2023-03-26T11:28:01.641Z,4.20
2023-03-26T11:30:42.754Z,3.80
2023-03-26T11:33:14.147Z,4.30
2023-03-26T11:35:46.844Z,3.20
2023-03-26T11:38:20.755Z,2.73
2023-03-26T11:40:51.567Z,2.77
2023-03-26T11:43:23.243Z,3.07
2023-03-26T11:45:54.031Z,3.37
2023-03-26T11:48:28.638Z,2.63
2023-03-26T11:51:03.015Z,3.17
2023-03-26T11:53:34.564Z,2.60
2023-03-26T11:56:08.088Z,2.90
2023-03-26T11:58:43.755Z,2.53
2023-03-26T12:01:17.803Z,2.67
2023-03-26T12:03:57.243Z,2.77
2023-03-26T12:06:27.495Z,2.33
2023-03-26T12:08:56.866Z,2.83
2023-03-26T12:11:28.205Z,2.67
2023-03-26T12:14:00.308Z,2.97
2023-03-26T12:16:29.983Z,2.90
2023-03-26T12:19:04.119Z,2.70
2023-03-26T12:21:46.022Z,2.40
2023-03-26T12:24:28.051Z,2.67
2023-03-26T12:27:02.025Z,3.47
2023-03-26T12:29:34.310Z,2.90
2023-03-26T12:32:14.390Z,2.83
2023-03-26T12:34:42.745Z,2.50
2023-03-26T12:37:35.069Z,3.28
2023-03-26T12:40:27.136Z,3.20
2023-03-26T12:44:48.827Z,3.40
2023-03-26T12:45:44.773Z,3.10
2023-03-26T12:48:16.808Z,4.47
2023-03-26T12:50:57.318Z,4.90
2023-03-26T12:53:38.913Z,3.00
2023-03-26T12:56:19.742Z,3.27
2023-03-26T12:59:03.909Z,3.07
2023-03-26T13:01:45.711Z,2.90
2023-03-26T13:04:51.895Z,3.20
2023-03-26T13:07:35.143Z,2.77
2023-03-26T13:10:26.625Z,2.23
2023-03-26T13:13:09.840Z,2.20
2023-03-26T13:15:44.124Z,2.80
2023-03-26T13:18:24.213Z,2.23
2023-03-26T13:20:59.469Z,2.33
2023-03-26T13:23:46.049Z,2.80
2023-03-26T13:26:26.912Z,2.30
2023-03-26T13:29:06.905Z,2.57
2023-03-26T13:31:41.180Z,2.43
2023-03-26T13:34:19.505Z,2.33
2023-03-26T13:37:00.481Z,2.40
2023-03-26T13:39:36.117Z,2.10
2023-03-26T13:42:18.218Z,1.90
2023-03-26T13:45:05.072Z,2.20
2023-03-26T13:47:36.611Z,2.75
2023-03-26T13:50:15.450Z,4.87
2023-03-26T13:52:49.258Z,2.60
2023-03-26T13:55:26.319Z,2.30
2023-03-26T13:58:03.067Z,2.20
2023-03-26T14:00:54.480Z,2.23
2023-03-26T14:03:30.072Z,1.67
2023-03-26T14:06:05.650Z,1.90
2023-03-26T14:08:38.936Z,1.73
2023-03-26T14:11:12.389Z,2.07
2023-03-26T14:13:47.420Z,2.70
2023-03-26T14:16:19.397Z,2.37
2023-03-26T14:18:53.319Z,2.20
2023-03-26T14:21:36.580Z,1.83
2023-03-26T14:24:24.647Z,1.87
2023-03-26T14:27:05.540Z,1.70
2023-03-26T14:29:56.304Z,1.83
2023-03-26T14:33:01.176Z,2.23
2023-03-26T14:35:37.768Z,1.83
2023-03-26T14:38:33.898Z,1.90
2023-03-26T14:41:20.975Z,1.90
2023-03-26T14:44:18.221Z,2.20
2023-03-26T14:47:14.518Z,2.70
2023-03-26T14:50:20.566Z,2.13
2023-03-26T14:52:50.400Z,1.90
2023-03-26T14:55:33.814Z,2.17
2023-03-26T14:58:27.827Z,1.80
2023-03-26T15:01:18.620Z,1.60
2023-03-26T15:04:21.299Z,2.17
2023-03-26T15:07:33.958Z,2.00
2023-03-26T15:10:16.855Z,2.00
2023-03-26T15:12:58.941Z,2.00
2023-03-26T15:15:54.378Z,1.97
2023-03-26T15:18:52.990Z,1.80
2023-03-26T15:21:43.268Z,2.08
2023-03-26T15:25:04.162Z,2.07
2023-03-26T15:27:54.948Z,2.17
2023-03-26T15:30:57.875Z,1.90
2023-03-26T15:34:12.133Z,2.60
2023-03-26T15:37:17.717Z,2.00
2023-03-26T15:40:12.775Z,2.17
2023-03-26T15:42:54.359Z,1.77
2023-03-26T15:45:37.823Z,1.83
2023-03-26T15:48:44.223Z,2.50
2023-03-26T15:51:47.295Z,2.00
2023-03-26T15:54:24.105Z,1.63
2023-03-26T15:57:07.166Z,2.20
2023-03-26T15:59:44.260Z,2.30
2023-03-26T16:02:26.366Z,2.53
2023-03-26T16:04:55.849Z,2.03
2023-03-26T16:07:41.392Z,1.77
2023-03-26T16:10:28.034Z,2.10
2023-03-26T16:13:12.705Z,1.97
2023-03-26T16:15:41.449Z,2.50
2023-03-26T16:23:47.789Z,1.67
2023-03-26T16:26:20.792Z,2.27
2023-03-26T16:29:15.858Z,1.70
2023-03-26T16:32:05.827Z,2.83
2023-03-26T16:34:42.146Z,2.20
2023-03-26T16:37:40.878Z,3.20
2023-03-26T16:40:50.208Z,1.90
2023-03-26T16:43:42.378Z,2.10
2023-03-26T16:46:25.017Z,2.23
2023-03-26T16:48:59.737Z,1.50
2023-03-26T16:51:43.642Z,1.87
2023-03-26T16:54:22.115Z,1.60
2023-03-26T16:56:56.455Z,1.58
2023-03-26T17:00:05.469Z,2.10
2023-03-26T17:02:51.304Z,2.60
2023-03-26T17:05:25.338Z,2.10
2023-03-26T17:08:02.768Z,2.10
2023-03-26T17:10:40.053Z,2.03
2023-03-26T17:13:12.352Z,1.50
2023-03-26T17:15:49.298Z,1.50
2023-03-26T17:18:37.652Z,1.70
2023-03-26T17:21:12.051Z,2.00
2023-03-26T17:24:01.237Z,1.40
2023-03-26T17:26:42.228Z,3.30
2023-03-26T17:29:25.058Z,2.33
2023-03-26T17:31:59.267Z,1.80
2023-03-26T17:34:40.298Z,1.97
2023-03-26T17:37:11.846Z,1.60
2023-03-26T17:40:36.760Z,1.87
2023-03-26T17:43:11.097Z,1.43
2023-03-26T17:45:40.754Z,1.40
2023-03-26T17:48:16.775Z,1.90
2023-03-26T17:50:51.681Z,1.77
2023-03-26T17:53:24.449Z,2.07
2023-03-26T17:55:53.390Z,1.57
2023-03-26T17:58:30.101Z,1.57
2023-03-26T18:01:06.625Z,1.50
2023-03-26T18:03:39.154Z,1.50
2023-03-26T18:06:10.636Z,1.83
2023-03-26T18:08:49.572Z,1.40
2023-03-26T18:11:38.171Z,1.80
2023-03-26T18:16:52.490Z,1.80
2023-03-26T18:19:22.957Z,1.83
2023-03-26T18:21:54.726Z,2.10
2023-03-26T18:24:25.517Z,1.93
2023-03-26T18:27:00.096Z,1.87
2023-03-26T18:29:31.079Z,1.70
2023-03-26T18:32:02.615Z,1.77
2023-03-26T18:34:32.618Z,1.87
2023-03-26T18:37:17.735Z,1.83
2023-03-26T18:39:58.978Z,1.70
2023-03-26T18:42:28.064Z,1.40
2023-03-26T18:45:00.853Z,1.67
2023-03-26T18:47:32.729Z,1.20
2023-03-26T18:50:01.163Z,1.80
2023-03-26T18:52:31.223Z,2.08
2023-03-26T18:55:00.099Z,1.50
2023-03-26T18:57:29.729Z,1.77
2023-03-26T19:00:09.873Z,2.03
2023-03-26T19:02:40.023Z,2.20
2023-03-26T19:05:13.804Z,1.30
2023-03-26T19:07:41.963Z,1.50
2023-03-26T19:10:18.555Z,1.77
2023-03-26T19:12:47.263Z,1.60
2023-03-26T19:15:17.357Z,1.42
2023-03-26T19:17:50.800Z,1.50
2023-03-26T19:20:22.658Z,2.00
2023-03-26T19:22:51.406Z,1.30
2023-03-26T19:27:51.697Z,1.10
2023-03-26T19:30:30.136Z,1.57
2023-03-26T19:33:12.246Z,1.40
2023-03-26T19:35:42.488Z,1.50
2023-03-26T19:38:27.128Z,1.63
2023-03-26T19:40:56.880Z,1.73
2023-03-26T19:43:26.247Z,1.20
2023-03-26T19:48:49.038Z,1.77
2023-03-26T19:51:18.410Z,1.50
2023-03-26T19:51:21.749Z,1.47
2023-03-26T19:53:54.181Z,1.37
2023-03-26T19:56:22.886Z,1.10
2023-03-26T19:58:51.337Z,2.10
2023-03-26T20:01:21.455Z,1.50
2023-03-26T20:03:52.855Z,1.13
2023-03-26T20:06:30.620Z,1.67
2023-03-26T20:09:06.080Z,1.37
2023-03-26T20:11:37.990Z,1.85
2023-03-26T20:14:13.551Z,1.30
2023-03-26T20:16:43.825Z,1.40
2023-03-26T20:19:14.879Z,1.37
2023-03-26T20:21:44.227Z,1.40
2023-03-26T20:24:14.638Z,1.47
2023-03-26T20:26:42.820Z,1.40
2023-03-26T20:29:11.737Z,1.17
2023-03-26T20:31:41.516Z,1.20
2023-03-26T20:34:19.938Z,1.40
2023-03-26T20:36:54.062Z,1.70
2023-03-26T20:39:22.283Z,1.87
2023-03-26T20:41:51.268Z,1.10
2023-03-26T20:44:21.225Z,1.30
2023-03-26T20:46:50.638Z,1.40
2023-03-26T20:49:22.090Z,1.33
2023-03-26T20:51:49.908Z,1.37
2023-03-26T20:54:20.237Z,1.60
2023-03-26T20:56:49.077Z,1.63
2023-03-26T20:59:22.385Z,1.40
2023-03-26T21:01:51.159Z,1.10
2023-03-26T21:04:20.848Z,1.42
2023-03-26T21:06:49.282Z,1.40
2023-03-26T21:09:19.337Z,1.95
2023-03-26T21:11:53.809Z,1.30
2023-03-26T21:14:25.115Z,1.70
2023-03-26T21:16:53.395Z,1.50
2023-03-26T21:19:23.434Z,1.50
2023-03-26T21:22:04.687Z,1.00
2023-03-26T21:24:50.720Z,1.97
2023-03-26T21:27:26.430Z,1.87
2023-03-26T21:29:55.079Z,1.50
2023-03-26T21:32:24.351Z,1.90
2023-03-26T21:37:25.674Z,1.20
2023-03-26T21:39:53.793Z,1.48
2023-03-26T21:42:22.007Z,1.20
2023-03-26T21:44:50.572Z,1.52
2023-03-26T21:47:18.696Z,1.33
2023-03-26T21:49:46.898Z,1.40
2023-03-26T21:52:16.454Z,1.30
2023-03-26T21:54:44.736Z,1.00
2023-03-26T21:57:25.351Z,1.20
2023-03-26T22:00:07.420Z,1.10
2023-03-26T22:02:44.023Z,1.67
2023-03-26T22:05:16.246Z,1.30
2023-03-26T22:07:53.922Z,1.23
2023-03-26T22:10:21.997Z,1.60
2023-03-26T22:12:49.921Z,1.27
2023-03-26T22:15:19.223Z,1.25
2023-03-26T22:17:53.624Z,1.23
2023-03-26T22:20:24.516Z,1.73
2023-03-26T22:22:55.247Z,1.60
2023-03-26T22:25:24.524Z,1.40
2023-03-26T22:27:52.778Z,1.10
2023-03-26T22:30:21.850Z,1.30
2023-03-26T22:32:50.210Z,1.10
2023-03-26T22:35:18.165Z,1.05
2023-03-26T22:37:46.013Z,1.20
2023-03-26T22:40:15.207Z,1.20
2023-03-26T22:42:43.206Z,1.13
2023-03-26T22:45:12.414Z,1.27
2023-03-26T22:47:40.892Z,1.40
2023-03-26T22:50:09.870Z,1.40
2023-03-26T22:52:39.689Z,1.17
2023-03-26T22:55:08.706Z,1.50
2023-03-26T22:57:37.702Z,1.93
2023-03-26T23:00:16.181Z,1.03
2023-03-26T23:02:45.814Z,1.15
2023-03-26T23:05:13.919Z,1.10
2023-03-26T23:07:42.510Z,1.30
2023-03-26T23:10:11.584Z,1.40
2023-03-26T23:12:41.393Z,0.90
2023-03-26T23:15:10.524Z,1.23
2023-03-26T23:17:38.615Z,1.10
2023-03-26T23:20:14.633Z,1.48
2023-03-26T23:22:44.059Z,3.10
2023-03-26T23:25:12.606Z,1.00
2023-03-26T23:27:41.706Z,1.27
2023-03-26T23:30:11.749Z,1.13
2023-03-26T23:32:39.621Z,1.50
2023-03-26T23:35:08.310Z,0.90
2023-03-26T23:37:36.785Z,1.38
2023-03-26T23:40:09.887Z,1.10
2023-03-26T23:42:38.318Z,1.57
2023-03-26T23:45:09.014Z,1.00
2023-03-26T23:47:37.373Z,1.27
2023-03-26T23:50:06.298Z,1.23
2023-03-26T23:55:01.576Z,0.90
2023-03-26T23:57:30.479Z,1.10
2023-03-26T23:59:58.416Z,1.20
